sensor_id;sensor_type;location;lat;lon;timestamp;pressure;altitude;pressure_sealevel;temperature;humidity
43480;BME280;29067;35.492;-97.520;2023-05-01T00:01:15;96967.81;;;17.49;23.53
43480;BME280;29067;35.492;-97.520;2023-05-01T00:03:43;96970.37;;;18.31;22.52
43480;BME280;29067;35.492;-97.520;2023-05-01T00:06:11;96972.71;;;17.71;23.05
43480;BME280;29067;35.492;-97.520;2023-05-01T00:08:38;96974.04;;;17.99;22.91
43480;BME280;29067;35.492;-97.520;2023-05-01T00:11:07;96970.78;;;17.93;23.29
43480;BME280;29067;35.492;-97.520;2023-05-01T00:13:41;96975.15;;;16.52;23.11
43480;BME280;29067;35.492;-97.520;2023-05-01T00:16:10;96973.13;;;17.32;24.02
43480;BME280;29067;35.492;-97.520;2023-05-01T00:18:38;96969.53;;;17.37;23.69
43480;BME280;29067;35.492;-97.520;2023-05-01T00:21:07;96970.92;;;16.72;23.53
43480;BME280;29067;35.492;-97.520;2023-05-01T00:23:35;96965.16;;;16.22;23.44
43480;BME280;29067;35.492;-97.520;2023-05-01T00:26:04;96964.98;;;16.36;23.20
43480;BME280;29067;35.492;-97.520;2023-05-01T00:28:33;96965.43;;;15.76;23.72
43480;BME280;29067;35.492;-97.520;2023-05-01T00:31:01;96959.58;;;17.05;22.80
43480;BME280;29067;35.492;-97.520;2023-05-01T00:33:28;96954.33;;;16.80;23.08
43480;BME280;29067;35.492;-97.520;2023-05-01T00:35:56;96953.11;;;17.80;22.68
43480;BME280;29067;35.492;-97.520;2023-05-01T00:38:24;96951.74;;;17.12;22.93
43480;BME280;29067;35.492;-97.520;2023-05-01T00:40:54;96955.28;;;16.30;23.47
43480;BME280;29067;35.492;-97.520;2023-05-01T00:43:23;96954.34;;;16.85;22.93
43480;BME280;29067;35.492;-97.520;2023-05-01T00:45:51;96955.09;;;16.39;23.76
43480;BME280;29067;35.492;-97.520;2023-05-01T00:48:19;96956.94;;;15.48;23.61
43480;BME280;29067;35.492;-97.520;2023-05-01T00:50:52;96956.05;;;16.52;23.98
43480;BME280;29067;35.492;-97.520;2023-05-01T00:53:21;96956.83;;;17.11;22.99
43480;BME280;29067;35.492;-97.520;2023-05-01T00:55:50;96957.13;;;16.49;23.47
43480;BME280;29067;35.492;-97.520;2023-05-01T00:58:20;96959.00;;;17.26;23.29
43480;BME280;29067;35.492;-97.520;2023-05-01T01:00:48;96958.12;;;17.22;23.38
43480;BME280;29067;35.492;-97.520;2023-05-01T01:03:17;96958.82;;;16.56;24.21
43480;BME280;29067;35.492;-97.520;2023-05-01T01:05:52;96962.91;;;16.73;23.60
43480;BME280;29067;35.492;-97.520;2023-05-01T01:08:25;96961.70;;;18.00;22.45
43480;BME280;29067;35.492;-97.520;2023-05-01T01:11:00;96963.97;;;18.29;22.47
43480;BME280;29067;35.492;-97.520;2023-05-01T01:13:38;96963.58;;;18.61;21.95
43480;BME280;29067;35.492;-97.520;2023-05-01T01:16:17;96966.51;;;17.82;22.48
43480;BME280;29067;35.492;-97.520;2023-05-01T01:18:51;96970.55;;;19.00;22.28
43480;BME280;29067;35.492;-97.520;2023-05-01T01:21:25;96973.08;;;18.48;22.98
43480;BME280;29067;35.492;-97.520;2023-05-01T01:24:44;96972.67;;;17.87;22.97
43480;BME280;29067;35.492;-97.520;2023-05-01T01:27:35;96972.94;;;18.37;22.91
43480;BME280;29067;35.492;-97.520;2023-05-01T01:30:58;96976.11;;;17.71;23.77
43480;BME280;29067;35.492;-97.520;2023-05-01T01:34:08;96989.85;;;15.57;23.71
43480;BME280;29067;35.492;-97.520;2023-05-01T01:36:45;96986.95;;;18.35;22.33
43480;BME280;29067;35.492;-97.520;2023-05-01T01:39:23;96990.48;;;18.02;23.02
43480;BME280;29067;35.492;-97.520;2023-05-01T01:41:56;96995.69;;;17.47;23.41
43480;BME280;29067;35.492;-97.520;2023-05-01T01:44:33;97001.85;;;17.41;23.28
43480;BME280;29067;35.492;-97.520;2023-05-01T01:47:07;97003.17;;;19.19;22.07
43480;BME280;29067;35.492;-97.520;2023-05-01T01:49:41;97003.90;;;18.64;22.19
43480;BME280;29067;35.492;-97.520;2023-05-01T01:52:12;97007.44;;;18.02;22.98
43480;BME280;29067;35.492;-97.520;2023-05-01T01:54:46;97006.76;;;17.82;23.35
43480;BME280;29067;35.492;-97.520;2023-05-01T01:57:17;97015.71;;;16.14;23.60
43480;BME280;29067;35.492;-97.520;2023-05-01T01:59:47;97017.27;;;17.42;23.02
43480;BME280;29067;35.492;-97.520;2023-05-01T02:02:17;97023.92;;;16.57;24.13
43480;BME280;29067;35.492;-97.520;2023-05-01T02:04:47;97023.24;;;16.95;23.45
43480;BME280;29067;35.492;-97.520;2023-05-01T02:07:17;97024.94;;;17.84;23.68
43480;BME280;29067;35.492;-97.520;2023-05-01T02:09:46;97029.41;;;16.99;23.88
43480;BME280;29067;35.492;-97.520;2023-05-01T02:12:18;97031.60;;;16.18;23.82
43480;BME280;29067;35.492;-97.520;2023-05-01T02:14:47;97035.20;;;16.17;24.71
43480;BME280;29067;35.492;-97.520;2023-05-01T02:17:18;97040.69;;;15.64;25.19
43480;BME280;29067;35.492;-97.520;2023-05-01T02:19:47;97043.86;;;16.37;25.05
43480;BME280;29067;35.492;-97.520;2023-05-01T02:22:17;97044.21;;;16.34;25.57
43480;BME280;29067;35.492;-97.520;2023-05-01T02:24:52;97048.92;;;15.51;25.14
43480;BME280;29067;35.492;-97.520;2023-05-01T02:27:23;97049.71;;;17.00;25.59
43480;BME280;29067;35.492;-97.520;2023-05-01T02:29:53;97053.33;;;15.67;25.46
43480;BME280;29067;35.492;-97.520;2023-05-01T02:32:22;97056.63;;;16.09;25.43
43480;BME280;29067;35.492;-97.520;2023-05-01T02:34:49;97058.62;;;15.79;25.80
43480;BME280;29067;35.492;-97.520;2023-05-01T02:37:17;97056.39;;;16.35;24.42
43480;BME280;29067;35.492;-97.520;2023-05-01T02:39:45;97063.75;;;16.96;25.36
43480;BME280;29067;35.492;-97.520;2023-05-01T02:42:15;97068.80;;;15.73;24.88
43480;BME280;29067;35.492;-97.520;2023-05-01T02:44:47;97075.80;;;16.22;25.13
43480;BME280;29067;35.492;-97.520;2023-05-01T02:47:19;97081.72;;;14.84;25.99
43480;BME280;29067;35.492;-97.520;2023-05-01T02:49:50;97083.50;;;15.42;25.48
43480;BME280;29067;35.492;-97.520;2023-05-01T02:52:19;97083.88;;;16.88;25.08
43480;BME280;29067;35.492;-97.520;2023-05-01T02:54:48;97089.25;;;14.95;25.83
43480;BME280;29067;35.492;-97.520;2023-05-01T02:57:17;97093.85;;;15.84;25.51
43480;BME280;29067;35.492;-97.520;2023-05-01T02:59:45;97098.77;;;15.36;25.45
43480;BME280;29067;35.492;-97.520;2023-05-01T03:02:13;97098.70;;;13.99;26.40
43480;BME280;29067;35.492;-97.520;2023-05-01T03:04:41;97102.09;;;14.73;26.36
43480;BME280;29067;35.492;-97.520;2023-05-01T03:07:08;97105.32;;;14.56;26.48
43480;BME280;29067;35.492;-97.520;2023-05-01T03:09:36;97108.53;;;14.28;27.33
43480;BME280;29067;35.492;-97.520;2023-05-01T03:12:04;97109.33;;;13.96;27.72
43480;BME280;29067;35.492;-97.520;2023-05-01T03:14:33;97111.11;;;13.72;27.87
43480;BME280;29067;35.492;-97.520;2023-05-01T03:17:02;97109.10;;;13.26;27.63
43480;BME280;29067;35.492;-97.520;2023-05-01T03:19:36;97116.05;;;13.17;27.98
43480;BME280;29067;35.492;-97.520;2023-05-01T03:22:04;97122.54;;;12.90;27.97
43480;BME280;29067;35.492;-97.520;2023-05-01T03:24:32;97128.09;;;14.27;27.89
43480;BME280;29067;35.492;-97.520;2023-05-01T03:27:00;97130.45;;;13.91;28.42
43480;BME280;29067;35.492;-97.520;2023-05-01T03:29:29;97134.26;;;12.79;29.87
43480;BME280;29067;35.492;-97.520;2023-05-01T03:31:57;97133.46;;;12.86;30.20
43480;BME280;29067;35.492;-97.520;2023-05-01T03:34:25;97127.45;;;14.15;29.31
43480;BME280;29067;35.492;-97.520;2023-05-01T03:36:58;97121.50;;;15.15;28.47
43480;BME280;29067;35.492;-97.520;2023-05-01T03:39:32;97124.36;;;14.26;29.08
43480;BME280;29067;35.492;-97.520;2023-05-01T03:42:00;97126.13;;;13.08;30.07
43480;BME280;29067;35.492;-97.520;2023-05-01T03:44:39;97125.20;;;12.84;31.13
43480;BME280;29067;35.492;-97.520;2023-05-01T03:47:07;97124.69;;;11.54;31.36
43480;BME280;29067;35.492;-97.520;2023-05-01T03:49:40;97132.07;;;11.50;32.00
43480;BME280;29067;35.492;-97.520;2023-05-01T03:52:11;97132.66;;;11.67;32.24
43480;BME280;29067;35.492;-97.520;2023-05-01T03:54:45;97135.74;;;11.81;33.42
43480;BME280;29067;35.492;-97.520;2023-05-01T03:57:12;97136.42;;;11.85;33.97
43480;BME280;29067;35.492;-97.520;2023-05-01T03:59:40;97138.75;;;12.49;33.55
43480;BME280;29067;35.492;-97.520;2023-05-01T04:02:08;97143.52;;;11.72;34.21
43480;BME280;29067;35.492;-97.520;2023-05-01T04:04:36;97145.92;;;11.30;34.42
43480;BME280;29067;35.492;-97.520;2023-05-01T04:07:03;97146.69;;;13.14;33.38
43480;BME280;29067;35.492;-97.520;2023-05-01T04:09:31;97149.02;;;11.39;34.89
43480;BME280;29067;35.492;-97.520;2023-05-01T04:11:59;97154.90;;;11.04;35.29
43480;BME280;29067;35.492;-97.520;2023-05-01T04:14:27;97156.54;;;10.61;35.33
43480;BME280;29067;35.492;-97.520;2023-05-01T04:16:55;97152.55;;;10.93;34.92
43480;BME280;29067;35.492;-97.520;2023-05-01T04:19:24;97151.73;;;11.54;34.98
43480;BME280;29067;35.492;-97.520;2023-05-01T04:21:58;97151.57;;;11.23;34.94
43480;BME280;29067;35.492;-97.520;2023-05-01T04:24:26;97149.79;;;12.62;34.25
43480;BME280;29067;35.492;-97.520;2023-05-01T04:26:53;97148.55;;;11.76;34.62
43480;BME280;29067;35.492;-97.520;2023-05-01T04:29:22;97151.88;;;10.82;35.45
43480;BME280;29067;35.492;-97.520;2023-05-01T04:31:50;97148.55;;;11.07;35.60
43480;BME280;29067;35.492;-97.520;2023-05-01T04:34:18;97138.97;;;11.92;34.36
43480;BME280;29067;35.492;-97.520;2023-05-01T04:36:51;97142.10;;;10.50;35.36
43480;BME280;29067;35.492;-97.520;2023-05-01T04:39:24;97143.35;;;10.07;35.36
43480;BME280;29067;35.492;-97.520;2023-05-01T04:41:54;97147.08;;;10.21;35.33
43480;BME280;29067;35.492;-97.520;2023-05-01T04:44:25;97146.06;;;10.08;35.68
43480;BME280;29067;35.492;-97.520;2023-05-01T04:46:58;97146.09;;;9.65;36.07
43480;BME280;29067;35.492;-97.520;2023-05-01T04:49:26;97144.21;;;10.96;36.25
43480;BME280;29067;35.492;-97.520;2023-05-01T04:51:54;97138.23;;;11.27;33.75
43480;BME280;29067;35.492;-97.520;2023-05-01T04:54:22;97134.32;;;10.60;35.64
43480;BME280;29067;35.492;-97.520;2023-05-01T04:56:49;97136.16;;;9.43;36.30
43480;BME280;29067;35.492;-97.520;2023-05-01T04:59:17;97134.79;;;10.34;35.93
43480;BME280;29067;35.492;-97.520;2023-05-01T05:01:45;97139.02;;;9.66;36.18
43480;BME280;29067;35.492;-97.520;2023-05-01T05:04:13;97140.22;;;10.19;36.65
43480;BME280;29067;35.492;-97.520;2023-05-01T05:06:41;97144.06;;;11.31;35.57
43480;BME280;29067;35.492;-97.520;2023-05-01T05:09:09;97142.66;;;9.70;36.73
43480;BME280;29067;35.492;-97.520;2023-05-01T05:11:36;97147.69;;;9.05;37.96
43480;BME280;29067;35.492;-97.520;2023-05-01T05:14:04;97148.21;;;9.50;37.59
43480;BME280;29067;35.492;-97.520;2023-05-01T05:16:32;97153.40;;;9.40;37.08
43480;BME280;29067;35.492;-97.520;2023-05-01T05:19:08;97150.58;;;9.28;37.51
43480;BME280;29067;35.492;-97.520;2023-05-01T05:21:38;97152.29;;;9.72;37.55
43480;BME280;29067;35.492;-97.520;2023-05-01T05:24:15;97156.84;;;8.39;37.99
43480;BME280;29067;35.492;-97.520;2023-05-01T05:26:49;97161.77;;;9.46;38.04
43480;BME280;29067;35.492;-97.520;2023-05-01T05:29:17;97164.04;;;9.64;38.03
43480;BME280;29067;35.492;-97.520;2023-05-01T05:31:50;97164.10;;;8.36;37.44
43480;BME280;29067;35.492;-97.520;2023-05-01T05:34:18;97167.38;;;9.07;37.76
43480;BME280;29067;35.492;-97.520;2023-05-01T05:36:45;97168.50;;;8.55;37.77
43480;BME280;29067;35.492;-97.520;2023-05-01T05:39:13;97171.09;;;8.92;37.71
43480;BME280;29067;35.492;-97.520;2023-05-01T05:41:42;97175.30;;;8.53;38.40
43480;BME280;29067;35.492;-97.520;2023-05-01T05:44:16;97175.15;;;7.92;37.77
43480;BME280;29067;35.492;-97.520;2023-05-01T05:46:50;97176.03;;;8.23;38.75
43480;BME280;29067;35.492;-97.520;2023-05-01T05:49:18;97175.46;;;7.98;40.00
43480;BME280;29067;35.492;-97.520;2023-05-01T05:51:46;97175.18;;;8.36;40.54
43480;BME280;29067;35.492;-97.520;2023-05-01T05:54:13;97170.96;;;9.69;39.05
43480;BME280;29067;35.492;-97.520;2023-05-01T05:56:41;97170.13;;;8.85;39.66
43480;BME280;29067;35.492;-97.520;2023-05-01T05:59:09;97176.60;;;8.57;39.31
43480;BME280;29067;35.492;-97.520;2023-05-01T06:01:37;97184.39;;;7.92;40.46
43480;BME280;29067;35.492;-97.520;2023-05-01T06:04:05;97182.62;;;7.76;39.97
43480;BME280;29067;35.492;-97.520;2023-05-01T06:06:33;97181.87;;;9.16;40.35
43480;BME280;29067;35.492;-97.520;2023-05-01T06:09:01;97179.43;;;9.35;40.20
43480;BME280;29067;35.492;-97.520;2023-05-01T06:11:29;97185.73;;;8.62;40.51
43480;BME280;29067;35.492;-97.520;2023-05-01T06:13:57;97184.50;;;8.01;40.52
43480;BME280;29067;35.492;-97.520;2023-05-01T06:16:25;97180.14;;;7.91;40.16
43480;BME280;29067;35.492;-97.520;2023-05-01T06:18:52;97179.33;;;8.71;39.65
43480;BME280;29067;35.492;-97.520;2023-05-01T06:21:20;97185.75;;;7.69;40.52
43480;BME280;29067;35.492;-97.520;2023-05-01T06:23:48;97186.72;;;8.03;40.05
43480;BME280;29067;35.492;-97.520;2023-05-01T06:26:17;97190.97;;;8.00;40.02
43480;BME280;29067;35.492;-97.520;2023-05-01T06:28:45;97194.64;;;7.89;39.68
43480;BME280;29067;35.492;-97.520;2023-05-01T06:31:13;97194.14;;;8.80;39.43
43480;BME280;29067;35.492;-97.520;2023-05-01T06:33:41;97202.49;;;8.06;39.26
43480;BME280;29067;35.492;-97.520;2023-05-01T06:36:08;97205.02;;;7.84;40.37
43480;BME280;29067;35.492;-97.520;2023-05-01T06:38:36;97204.72;;;7.60;39.91
43480;BME280;29067;35.492;-97.520;2023-05-01T06:41:04;97199.08;;;8.75;39.57
43480;BME280;29067;35.492;-97.520;2023-05-01T06:43:32;97198.44;;;8.43;38.98
43480;BME280;29067;35.492;-97.520;2023-05-01T06:46:00;97201.72;;;7.74;39.49
43480;BME280;29067;35.492;-97.520;2023-05-01T06:48:28;97198.28;;;7.62;38.89
43480;BME280;29067;35.492;-97.520;2023-05-01T06:50:56;97190.74;;;8.58;38.59
43480;BME280;29067;35.492;-97.520;2023-05-01T06:53:24;97188.79;;;7.95;38.36
43480;BME280;29067;35.492;-97.520;2023-05-01T06:55:52;97191.69;;;7.78;39.45
43480;BME280;29067;35.492;-97.520;2023-05-01T06:58:20;97192.00;;;7.59;39.10
43480;BME280;29067;35.492;-97.520;2023-05-01T07:00:47;97188.23;;;8.74;38.48
43480;BME280;29067;35.492;-97.520;2023-05-01T07:03:15;97194.98;;;7.94;39.75
43480;BME280;29067;35.492;-97.520;2023-05-01T07:05:43;97191.59;;;7.71;40.48
43480;BME280;29067;35.492;-97.520;2023-05-01T07:08:11;97188.56;;;7.32;41.24
43480;BME280;29067;35.492;-97.520;2023-05-01T07:10:39;97186.03;;;7.62;41.25
43480;BME280;29067;35.492;-97.520;2023-05-01T07:13:07;97187.17;;;8.07;40.56
43480;BME280;29067;35.492;-97.520;2023-05-01T07:15:35;97189.87;;;7.18;40.66
43480;BME280;29067;35.492;-97.520;2023-05-01T07:18:03;97189.97;;;7.73;41.93
43480;BME280;29067;35.492;-97.520;2023-05-01T07:20:32;97190.36;;;7.43;42.78
43480;BME280;29067;35.492;-97.520;2023-05-01T07:23:00;97184.98;;;7.29;41.77
43480;BME280;29067;35.492;-97.520;2023-05-01T07:25:28;97172.79;;;8.58;41.20
43480;BME280;29067;35.492;-97.520;2023-05-01T07:27:56;97170.60;;;8.94;39.88
43480;BME280;29067;35.492;-97.520;2023-05-01T07:30:25;97169.67;;;8.69;40.79
43480;BME280;29067;35.492;-97.520;2023-05-01T07:32:53;97164.91;;;9.85;38.67
43480;BME280;29067;35.492;-97.520;2023-05-01T07:35:20;97161.54;;;7.70;39.79
43480;BME280;29067;35.492;-97.520;2023-05-01T07:37:56;97166.59;;;6.72;41.12
43480;BME280;29067;35.492;-97.520;2023-05-01T07:40:33;97158.80;;;7.09;40.71
43480;BME280;29067;35.492;-97.520;2023-05-01T07:43:02;97159.18;;;7.34;40.97
43480;BME280;29067;35.492;-97.520;2023-05-01T07:45:29;97158.90;;;7.05;40.45
43480;BME280;29067;35.492;-97.520;2023-05-01T07:48:03;97160.87;;;6.88;41.17
43480;BME280;29067;35.492;-97.520;2023-05-01T07:50:37;97158.48;;;7.92;41.15
43480;BME280;29067;35.492;-97.520;2023-05-01T07:53:05;97156.37;;;7.12;41.88
43480;BME280;29067;35.492;-97.520;2023-05-01T07:55:33;97156.41;;;6.69;41.11
43480;BME280;29067;35.492;-97.520;2023-05-01T07:58:06;97163.69;;;7.09;41.54
43480;BME280;29067;35.492;-97.520;2023-05-01T08:00:41;97165.86;;;6.27;41.92
43480;BME280;29067;35.492;-97.520;2023-05-01T08:03:09;97160.30;;;5.62;42.96
43480;BME280;29067;35.492;-97.520;2023-05-01T08:05:39;97153.12;;;7.17;41.67
43480;BME280;29067;35.492;-97.520;2023-05-01T08:08:08;97156.68;;;7.24;41.94
43480;BME280;29067;35.492;-97.520;2023-05-01T08:10:35;97161.94;;;7.02;42.53
43480;BME280;29067;35.492;-97.520;2023-05-01T08:13:03;97160.14;;;6.11;43.31
43480;BME280;29067;35.492;-97.520;2023-05-01T08:15:31;97156.44;;;6.91;43.06
43480;BME280;29067;35.492;-97.520;2023-05-01T08:18:00;97159.80;;;6.67;43.11
43480;BME280;29067;35.492;-97.520;2023-05-01T08:20:34;97158.96;;;6.53;43.58
43480;BME280;29067;35.492;-97.520;2023-05-01T08:23:02;97154.26;;;6.02;43.67
43480;BME280;29067;35.492;-97.520;2023-05-01T08:25:30;97153.26;;;6.50;43.97
43480;BME280;29067;35.492;-97.520;2023-05-01T08:28:04;97152.47;;;6.27;44.36
43480;BME280;29067;35.492;-97.520;2023-05-01T08:30:41;97155.98;;;5.54;44.65
43480;BME280;29067;35.492;-97.520;2023-05-01T08:33:10;97150.24;;;6.49;43.15
43480;BME280;29067;35.492;-97.520;2023-05-01T08:35:38;97143.51;;;7.94;42.04
43480;BME280;29067;35.492;-97.520;2023-05-01T08:38:06;97147.02;;;6.42;43.32
43480;BME280;29067;35.492;-97.520;2023-05-01T08:40:37;97149.46;;;6.44;43.31
43480;BME280;29067;35.492;-97.520;2023-05-01T08:43:05;97143.40;;;6.59;43.23
43480;BME280;29067;35.492;-97.520;2023-05-01T08:45:35;97137.34;;;6.09;43.86
43480;BME280;29067;35.492;-97.520;2023-05-01T08:48:05;97135.76;;;6.02;44.37
43480;BME280;29067;35.492;-97.520;2023-05-01T08:50:39;97138.99;;;6.30;43.24
43480;BME280;29067;35.492;-97.520;2023-05-01T08:53:08;97139.13;;;6.24;44.49
43480;BME280;29067;35.492;-97.520;2023-05-01T08:55:38;97137.04;;;6.34;44.50
43480;BME280;29067;35.492;-97.520;2023-05-01T08:58:19;97138.47;;;5.94;43.59
43480;BME280;29067;35.492;-97.520;2023-05-01T09:00:53;97143.62;;;5.93;43.85
43480;BME280;29067;35.492;-97.520;2023-05-01T09:03:21;97143.50;;;5.83;44.36
43480;BME280;29067;35.492;-97.520;2023-05-01T09:05:49;97140.42;;;8.02;41.25
43480;BME280;29067;35.492;-97.520;2023-05-01T09:08:23;97146.78;;;6.42;43.29
43480;BME280;29067;35.492;-97.520;2023-05-01T09:10:56;97146.49;;;6.86;42.51
43480;BME280;29067;35.492;-97.520;2023-05-01T09:13:30;97145.58;;;7.01;43.61
43480;BME280;29067;35.492;-97.520;2023-05-01T09:16:05;97148.29;;;6.35;43.27
43480;BME280;29067;35.492;-97.520;2023-05-01T09:18:34;97151.22;;;5.97;43.76
43480;BME280;29067;35.492;-97.520;2023-05-01T09:21:02;97152.29;;;5.65;43.89
43480;BME280;29067;35.492;-97.520;2023-05-01T09:23:30;97153.87;;;6.14;44.76
43480;BME280;29067;35.492;-97.520;2023-05-01T09:25:59;97159.73;;;5.41;45.42
43480;BME280;29067;35.492;-97.520;2023-05-01T09:28:41;97157.82;;;4.53;45.35
43480;BME280;29067;35.492;-97.520;2023-05-01T09:31:26;97156.34;;;5.19;44.43
43480;BME280;29067;35.492;-97.520;2023-05-01T09:33:56;97160.68;;;5.92;44.21
43480;BME280;29067;35.492;-97.520;2023-05-01T09:36:25;97158.79;;;6.22;44.64
43480;BME280;29067;35.492;-97.520;2023-05-01T09:38:53;97155.76;;;6.33;44.66
43480;BME280;29067;35.492;-97.520;2023-05-01T09:41:21;97160.37;;;5.87;45.55
43480;BME280;29067;35.492;-97.520;2023-05-01T09:43:50;97157.91;;;5.66;44.68
43480;BME280;29067;35.492;-97.520;2023-05-01T09:46:25;97158.49;;;5.92;45.10
43480;BME280;29067;35.492;-97.520;2023-05-01T09:48:55;97162.22;;;5.52;45.17
43480;BME280;29067;35.492;-97.520;2023-05-01T09:51:25;97158.85;;;5.41;45.35
43480;BME280;29067;35.492;-97.520;2023-05-01T09:53:56;97152.52;;;6.10;44.38
43480;BME280;29067;35.492;-97.520;2023-05-01T09:56:24;97150.61;;;5.73;44.66
43480;BME280;29067;35.492;-97.520;2023-05-01T09:58:54;97148.81;;;5.76;44.70
43480;BME280;29067;35.492;-97.520;2023-05-01T10:01:45;97151.14;;;4.81;45.28
43480;BME280;29067;35.492;-97.520;2023-05-01T10:04:30;97145.79;;;5.76;44.88
43480;BME280;29067;35.492;-97.520;2023-05-01T10:07:10;97145.48;;;5.43;45.64
43480;BME280;29067;35.492;-97.520;2023-05-01T10:09:38;97148.05;;;5.07;46.30
43480;BME280;29067;35.492;-97.520;2023-05-01T10:12:05;97147.65;;;5.14;45.89
43480;BME280;29067;35.492;-97.520;2023-05-01T10:14:35;97147.59;;;5.24;46.01
43480;BME280;29067;35.492;-97.520;2023-05-01T10:17:19;97147.18;;;5.14;45.93
43480;BME280;29067;35.492;-97.520;2023-05-01T10:19:47;97148.83;;;5.15;46.43
43480;BME280;29067;35.492;-97.520;2023-05-01T10:22:15;97147.21;;;4.97;45.99
43480;BME280;29067;35.492;-97.520;2023-05-01T10:24:44;97150.51;;;5.07;46.30
43480;BME280;29067;35.492;-97.520;2023-05-01T10:27:12;97149.26;;;4.14;47.36
43480;BME280;29067;35.492;-97.520;2023-05-01T10:29:40;97148.59;;;4.82;47.48
43480;BME280;29067;35.492;-97.520;2023-05-01T10:32:09;97145.34;;;4.51;47.57
43480;BME280;29067;35.492;-97.520;2023-05-01T10:34:39;97147.82;;;5.32;47.01
43480;BME280;29067;35.492;-97.520;2023-05-01T10:37:15;97148.74;;;5.31;46.83
43480;BME280;29067;35.492;-97.520;2023-05-01T10:39:45;97151.36;;;4.53;47.44
43480;BME280;29067;35.492;-97.520;2023-05-01T10:42:13;97147.49;;;4.98;48.65
43480;BME280;29067;35.492;-97.520;2023-05-01T10:44:41;97141.24;;;6.76;45.73
43480;BME280;29067;35.492;-97.520;2023-05-01T10:48:53;97139.46;;;7.39;44.32
43480;BME280;29067;35.492;-97.520;2023-05-01T10:51:21;97140.30;;;5.27;46.93
43480;BME280;29067;35.492;-97.520;2023-05-01T10:54:21;97145.52;;;5.49;47.78
43480;BME280;29067;35.492;-97.520;2023-05-01T10:56:50;97153.15;;;4.85;50.36
43480;BME280;29067;35.492;-97.520;2023-05-01T10:59:18;97147.79;;;6.09;49.18
43480;BME280;29067;35.492;-97.520;2023-05-01T11:04:06;97144.60;;;6.43;47.66
43480;BME280;29067;35.492;-97.520;2023-05-01T11:06:36;97147.10;;;7.41;45.84
43480;BME280;29067;35.492;-97.520;2023-05-01T11:09:36;97147.67;;;7.07;46.01
43480;BME280;29067;35.492;-97.520;2023-05-01T11:12:05;97146.94;;;7.48;45.56
43480;BME280;29067;35.492;-97.520;2023-05-01T11:15:02;97148.36;;;6.25;47.45
43480;BME280;29067;35.492;-97.520;2023-05-01T11:17:47;97152.85;;;5.57;50.00
43480;BME280;29067;35.492;-97.520;2023-05-01T11:20:47;97160.11;;;5.49;49.85
43480;BME280;29067;35.492;-97.520;2023-05-01T11:23:18;97171.44;;;4.82;51.38
43480;BME280;29067;35.492;-97.520;2023-05-01T11:25:47;97175.49;;;4.18;52.80
43480;BME280;29067;35.492;-97.520;2023-05-01T11:28:19;97182.05;;;4.19;53.01
43480;BME280;29067;35.492;-97.520;2023-05-01T11:30:47;97181.12;;;5.38;51.76
43480;BME280;29067;35.492;-97.520;2023-05-01T11:33:22;97185.40;;;4.53;51.98
43480;BME280;29067;35.492;-97.520;2023-05-01T11:35:57;97188.32;;;4.49;52.58
43480;BME280;29067;35.492;-97.520;2023-05-01T11:38:25;97192.18;;;3.91;52.82
43480;BME280;29067;35.492;-97.520;2023-05-01T11:40:57;97194.57;;;4.54;52.25
43480;BME280;29067;35.492;-97.520;2023-05-01T11:43:28;97200.71;;;4.04;53.94
43480;BME280;29067;35.492;-97.520;2023-05-01T11:45:55;97204.11;;;4.26;53.33
43480;BME280;29067;35.492;-97.520;2023-05-01T11:48:23;97209.57;;;4.53;52.82
43480;BME280;29067;35.492;-97.520;2023-05-01T11:50:51;97217.41;;;3.71;52.87
43480;BME280;29067;35.492;-97.520;2023-05-01T11:53:19;97216.49;;;4.30;52.80
43480;BME280;29067;35.492;-97.520;2023-05-01T11:55:47;97218.50;;;4.17;52.01
43480;BME280;29067;35.492;-97.520;2023-05-01T11:58:15;97218.96;;;5.25;51.78
43480;BME280;29067;35.492;-97.520;2023-05-01T12:00:43;97222.98;;;4.92;50.42
43480;BME280;29067;35.492;-97.520;2023-05-01T12:03:13;97221.52;;;5.19;49.16
43480;BME280;29067;35.492;-97.520;2023-05-01T12:05:43;97217.95;;;5.38;47.99
43480;BME280;29067;35.492;-97.520;2023-05-01T12:08:13;97218.27;;;5.50;47.87
43480;BME280;29067;35.492;-97.520;2023-05-01T12:10:43;97220.81;;;5.72;47.45
43480;BME280;29067;35.492;-97.520;2023-05-01T12:13:13;97224.13;;;5.71;47.99
43480;BME280;29067;35.492;-97.520;2023-05-01T12:15:43;97223.02;;;5.15;48.83
43480;BME280;29067;35.492;-97.520;2023-05-01T12:18:12;97227.21;;;5.76;48.78
43480;BME280;29067;35.492;-97.520;2023-05-01T12:20:42;97226.90;;;5.24;48.92
43480;BME280;29067;35.492;-97.520;2023-05-01T12:23:12;97222.62;;;5.58;48.05
43480;BME280;29067;35.492;-97.520;2023-05-01T12:25:41;97217.00;;;5.96;45.98
43480;BME280;29067;35.492;-97.520;2023-05-01T12:28:14;97214.92;;;6.81;46.00
43480;BME280;29067;35.492;-97.520;2023-05-01T12:30:43;97215.63;;;6.19;44.91
43480;BME280;29067;35.492;-97.520;2023-05-01T12:33:15;97216.00;;;6.01;43.57
43480;BME280;29067;35.492;-97.520;2023-05-01T12:35:44;97216.21;;;6.58;43.76
43480;BME280;29067;35.492;-97.520;2023-05-01T12:38:14;97213.67;;;8.53;41.89
43480;BME280;29067;35.492;-97.520;2023-05-01T12:40:51;97220.90;;;6.97;42.57
43480;BME280;29067;35.492;-97.520;2023-05-01T12:43:20;97215.98;;;7.89;41.20
43480;BME280;29067;35.492;-97.520;2023-05-01T12:45:51;97209.25;;;9.29;40.42
43480;BME280;29067;35.492;-97.520;2023-05-01T12:48:20;97207.03;;;8.29;40.61
43480;BME280;29067;35.492;-97.520;2023-05-01T12:50:49;97195.87;;;9.31;39.41
43480;BME280;29067;35.492;-97.520;2023-05-01T12:53:18;97190.40;;;9.39;38.65
43480;BME280;29067;35.492;-97.520;2023-05-01T12:55:47;97195.32;;;8.70;38.75
43480;BME280;29067;35.492;-97.520;2023-05-01T12:58:15;97202.05;;;10.08;37.92
43480;BME280;29067;35.492;-97.520;2023-05-01T13:00:47;97203.48;;;9.36;37.46
43480;BME280;29067;35.492;-97.520;2023-05-01T13:03:23;97205.13;;;9.14;37.34
43480;BME280;29067;35.492;-97.520;2023-05-01T13:05:53;97213.89;;;9.46;37.63
43480;BME280;29067;35.492;-97.520;2023-05-01T13:08:37;97220.85;;;9.24;37.27